< Cyclone 201514 2015 Season Cyclone 201517 >
Cyclone 201516 (Olwyn)
General InformationTrack Information on Google MapsDetailed Wind InformationList of All Images || ResourceGoogle EarthGE AnimationAtom FeedGeoJSON
Detalied Best Track (Time Zone = UTC)
Year Month Day Hour Lat. Long. Pressure (hPa) Wind (kt) Class Image Chart
2015 3 8 14 -13.9 112.5 1008 15 2 Image --
2015 3 8 18 -13.8 112.8 1008 15 2 Image --
2015 3 9 00 -13.7 113.2 1008 20 2 Image --
2015 3 9 04 -13.6 113.5 1008 20 0 Image --
2015 3 9 06 -13.6 113.7 1008 20 2 Image --
2015 3 9 12 -13.6 114.3 1008 20 2 Image --
2015 3 9 18 -13.6 115.0 1008 20 2 Image --
2015 3 10 00 -13.7 115.6 1005 25 2 Image --
2015 3 10 06 -14.1 115.8 1005 25 2 Image --
2015 3 10 12 -14.5 116.0 1005 25 2 Image --
2015 3 10 18 -14.9 116.1 1005 25 2 Image --
2015 3 11 00 -15.5 116.2 997 40 3 Image --
2015 3 11 06 -16.4 116.0 995 40 3 Image --
2015 3 11 12 -17.0 116.0 992 45 3 Image --
2015 3 11 18 -17.6 115.3 990 50 4 Image --
2015 3 12 00 -18.4 115.0 984 55 4 Image --
2015 3 12 06 -19.8 114.6 980 60 4 Image --
2015 3 12 12 -20.8 114.1 970 65 5 Image --
2015 3 12 18 -22.1 113.7 955 75 5 Image --
2015 3 13 00 -23.6 113.6 955 75 5 Image --
2015 3 13 03 -24.2 113.4 962.5 72.5 0 Image --
2015 3 13 06 -24.8 113.3 970 70 5 Image --
2015 3 13 09 -25.4 113.5 976.667 60 0 Image --
2015 3 13 12 -26.1 113.9 980 55 4 Image --
2015 3 13 18 -27.5 114.7 990 40 3 Image --
2015 3 14 00 -28.9 115.5 995 30 2 Image --
2015 3 14 01 -29.1 115.6 997.5 30 0 Image --
2015 3 14 06 -31.0 116.8 1000 30 2 Image --
2015 3 14 09 -32.0 117.5 1002 25 0 Image --
2015 3 14 12 -32.8 118.6 1004 20 2 Image --
2015 3 14 16 -33.9 120.0 1007 15 2 Image --
< Cyclone 201514 2015 Season Cyclone 201517 >

Help